Time;durP1;ratioP1;P1;durP2;ratioP2;P2;SDS_P1;SDS_P2;PMS_P1;PMS_P2;Temp;Humidity;BMP_temperature;BMP_pressure;BME280_temperature;BME280_humidity;BME280_pressure;Samples;Min_cycle;Max_cycle;Signal;HPM_P1;HPM_P2
2023/04/23 00:01:16;;;;;;;54.90;28.77;;;;;;;12.60;68.88;100786.81;4967609;28;20038;-43
2023/04/23 00:03:43;;;;;;;54.13;28.50;;;;;;;12.60;68.87;100793.78;4964407;28;20034;-43
2023/04/23 00:06:09;;;;;;;53.70;28.05;;;;;;;12.58;69.36;100796.38;4968118;28;20042;-42
2023/04/23 00:08:38;;;;;;;54.78;27.65;;;;;;;12.63;68.97;100787.66;4971918;28;20030;-41
2023/04/23 00:11:04;;;;;;;55.45;27.83;;;;;;;12.46;69.71;100788.50;4970325;28;20039;-43
2023/04/23 00:13:29;;;;;;;54.85;27.42;;;;;;;12.35;70.58;100781.47;4969598;28;20037;-42
2023/04/23 00:15:55;;;;;;;57.15;28.60;;;;;;;12.53;70.81;100779.81;4963909;28;20026;-43
2023/04/23 00:18:20;;;;;;;57.33;27.88;;;;;;;12.50;71.25;100771.09;4978210;28;20034;-44
2023/04/23 00:20:45;;;;;;;56.72;28.27;;;;;;;12.61;70.71;100772.00;4977966;28;20176;-43
2023/04/23 00:23:11;;;;;;;55.15;27.83;;;;;;;12.58;70.45;100770.22;4974292;28;20038;-43
2023/04/23 00:25:36;;;;;;;53.58;28.40;;;;;;;12.70;70.45;100774.63;4965853;28;20054;-46
2023/04/23 00:28:02;;;;;;;59.25;28.40;;;;;;;12.74;70.45;100771.19;4967525;28;22725;-44
2023/04/23 00:30:27;;;;;;;50.75;26.95;;;;;;;12.77;70.35;100763.31;4967295;28;20085;-45
2023/04/23 00:32:53;;;;;;;52.22;27.08;;;;;;;12.80;70.69;100765.09;4963855;28;20047;-42
2023/04/23 00:35:19;;;;;;;52.75;26.98;;;;;;;13.07;69.76;100756.41;4966759;28;20038;-41
2023/04/23 00:37:44;;;;;;;52.08;27.15;;;;;;;13.02;69.91;100751.16;4962137;28;20047;-44
2023/04/23 00:40:10;;;;;;;54.63;27.42;;;;;;;12.84;70.27;100756.34;4967044;28;20397;-42
2023/04/23 00:42:37;;;;;;;50.35;27.17;;;;;;;12.95;69.96;100750.28;4967327;28;20034;-49
2023/04/23 00:45:04;;;;;;;52.47;27.40;;;;;;;12.93;69.63;100741.53;4963609;28;20112;-44
2023/04/23 00:47:30;;;;;;;52.40;26.80;;;;;;;13.04;68.93;100736.34;4967266;28;20506;-44
2023/04/23 00:49:56;;;;;;;48.55;26.77;;;;;;;12.90;69.11;100738.06;4963257;28;21928;-43
2023/04/23 00:52:22;;;;;;;52.22;27.40;;;;;;;12.85;69.32;100734.56;4966516;28;20050;-44
2023/04/23 00:54:47;;;;;;;53.53;26.85;;;;;;;12.64;70.24;100739.72;4963627;28;20035;-43
2023/04/23 00:57:13;;;;;;;50.13;27.42;;;;;;;12.70;70.52;100735.41;4967508;28;20534;-44
2023/04/23 00:59:38;;;;;;;54.75;27.65;;;;;;;12.65;71.21;100734.50;4978138;28;20490;-43
2023/04/23 01:02:04;;;;;;;53.03;27.98;;;;;;;12.82;71.04;100738.03;4967197;28;20031;-43
2023/04/23 01:04:31;;;;;;;53.08;26.85;;;;;;;13.00;70.46;100731.97;4967980;28;20031;-43
2023/04/23 01:06:57;;;;;;;53.92;27.67;;;;;;;12.99;70.53;100731.09;4963715;28;20047;-42
2023/04/23 01:09:26;;;;;;;51.92;27.73;;;;;;;12.82;71.48;100724.97;4965698;28;20046;-46
2023/04/23 01:11:52;;;;;;;53.58;28.15;;;;;;;12.88;71.18;100716.25;4962717;28;20405;-44
2023/04/23 01:14:18;;;;;;;56.53;29.17;;;;;;;13.15;70.30;100731.16;4965398;28;20034;-44
2023/04/23 01:16:43;;;;;;;55.42;28.38;;;;;;;12.81;71.05;100722.31;4962897;28;20043;-47
2023/04/23 01:19:09;;;;;;;51.63;28.08;;;;;;;12.80;71.18;100707.53;4966184;28;20043;-44
2023/04/23 01:21:40;;;;;;;54.30;29.08;;;;;;;12.89;70.60;100711.03;4964381;28;20142;-42
2023/04/23 01:24:07;;;;;;;53.33;28.00;;;;;;;12.90;70.62;100711.91;4963187;28;20026;-40
2023/04/23 01:26:33;;;;;;;51.80;27.08;;;;;;;12.89;70.42;100711.03;4966317;28;20038;-43
2023/04/23 01:28:59;;;;;;;53.60;28.17;;;;;;;12.92;70.98;100711.03;4962700;28;20529;-42
2023/04/23 01:31:26;;;;;;;53.65;28.02;;;;;;;13.17;70.33;100713.72;4965573;28;20054;-44
2023/04/23 01:33:54;;;;;;;52.75;27.63;;;;;;;13.26;70.07;100711.94;4962332;28;20457;-42
2023/04/23 01:36:20;;;;;;;50.58;26.38;;;;;;;13.32;69.80;100713.69;4968391;28;20042;-43
2023/04/23 01:38:45;;;;;;;48.85;26.08;;;;;;;13.24;70.05;100712.81;4965675;28;20043;-42
2023/04/23 01:41:11;;;;;;;45.70;26.05;;;;;;;13.37;69.72;100709.31;4970425;28;20130;-47
2023/04/23 01:43:36;;;;;;;49.42;26.08;;;;;;;13.33;69.81;100699.72;4965919;28;20031;-59
2023/04/23 01:46:02;;;;;;;49.88;26.85;;;;;;;13.32;69.60;100703.22;4976186;23;20051;-42
2023/04/23 01:48:27;;;;;;;43.60;25.33;;;;;;;13.28;69.80;100702.34;4964894;28;20031;-42
2023/04/23 01:50:53;;;;;;;46.92;25.92;;;;;;;13.34;69.22;100710.22;4961373;28;20048;-43
2023/04/23 01:53:18;;;;;;;47.78;25.15;;;;;;;13.47;68.97;100704.97;4964839;28;20399;-41
2023/04/23 01:55:46;;;;;;;43.13;23.85;;;;;;;13.48;68.72;100709.34;4960838;28;20130;-42
2023/04/23 01:58:12;;;;;;;43.53;24.55;;;;;;;13.39;68.72;100704.97;4964271;28;20045;-43
2023/04/23 02:00:37;;;;;;;44.58;25.25;;;;;;;13.44;68.76;100708.44;4960235;28;20046;-41
2023/04/23 02:03:02;;;;;;;44.13;24.30;;;;;;;13.34;68.90;100709.34;4963111;28;20438;-41
2023/04/23 02:05:29;;;;;;;45.72;24.60;;;;;;;13.36;68.85;100705.81;4968237;28;20046;-43
2023/04/23 02:07:54;;;;;;;43.20;24.20;;;;;;;13.39;68.75;100694.50;4966127;28;20382;-43
2023/04/23 02:10:20;;;;;;;48.20;25.20;;;;;;;13.36;68.91;100700.59;4970221;28;20062;-41
2023/04/23 02:12:45;;;;;;;41.30;23.52;;;;;;;13.21;69.47;100692.75;4967363;28;20031;-41
2023/04/23 02:15:12;;;;;;;41.63;24.23;;;;;;;13.27;69.30;100686.66;4971028;28;20397;-41
2023/04/23 02:17:40;;;;;;;41.33;23.23;;;;;;;13.36;69.21;100697.97;4965613;28;20046;-41
2023/04/23 02:20:08;;;;;;;40.83;24.13;;;;;;;13.31;69.01;100689.25;4965675;28;20409;-41
2023/04/23 02:22:35;;;;;;;40.28;23.17;;;;;;;13.45;68.74;100686.63;4965302;28;20043;-41
2023/04/23 02:25:01;;;;;;;37.22;22.75;;;;;;;13.55;68.27;100688.34;4961223;28;20511;-42
2023/04/23 02:27:26;;;;;;;36.42;22.10;;;;;;;13.42;68.52;100685.78;4965322;28;20042;-41
2023/04/23 02:29:52;;;;;;;36.97;21.73;;;;;;;13.45;68.15;100691.88;4962695;28;20461;-42
2023/04/23 02:32:17;;;;;;;35.90;20.77;;;;;;;13.46;68.01;100690.13;4965176;28;20038;-40
2023/04/23 02:34:43;;;;;;;35.45;20.42;;;;;;;13.47;68.06;100689.25;4961560;28;20056;-41
2023/04/23 02:37:08;;;;;;;36.80;20.25;;;;;;;13.44;68.20;100692.72;4963622;28;20117;-41
2023/04/23 02:39:34;;;;;;;33.78;20.10;;;;;;;13.44;68.11;100687.50;4964220;28;20090;-43
2023/04/23 02:41:59;;;;;;;33.67;20.38;;;;;;;13.44;68.27;100682.25;4960506;28;20039;-41
2023/04/23 02:44:25;;;;;;;33.67;19.92;;;;;;;13.45;67.87;100691.00;4962276;28;20122;-41
2023/04/23 02:46:51;;;;;;;31.75;20.38;;;;;;;13.31;68.09;100691.88;4959230;28;20048;-41
2023/04/23 02:49:18;;;;;;;31.65;19.60;;;;;;;13.27;68.21;100697.13;4964331;28;20086;-41
2023/04/23 02:51:44;;;;;;;31.92;19.38;;;;;;;13.26;68.15;100691.00;4959321;28;20094;-45
2023/04/23 02:54:10;;;;;;;32.67;19.65;;;;;;;13.00;69.08;100688.34;4964824;28;20035;-42
2023/04/23 02:56:35;;;;;;;30.30;19.30;;;;;;;13.16;68.69;100689.28;4964648;28;20037;-43
2023/04/23 02:59:01;;;;;;;32.03;18.98;;;;;;;13.15;68.30;100684.91;4962728;28;20074;-44
2023/04/23 03:01:26;;;;;;;31.40;19.00;;;;;;;12.99;68.76;100685.75;4967897;28;20034;-41
2023/04/23 03:03:52;;;;;;;31.55;19.33;;;;;;;13.09;68.63;100678.75;4962923;28;20472;-42
2023/04/23 03:06:17;;;;;;;28.92;18.00;;;;;;;13.00;68.79;100671.78;4963702;28;20059;-42
2023/04/23 03:08:42;;;;;;;31.05;18.75;;;;;;;13.06;68.76;100678.75;4962704;28;20034;-44
2023/04/23 03:11:08;;;;;;;29.02;18.88;;;;;;;13.07;68.65;100677.88;4964838;28;20555;-41
2023/04/23 03:13:33;;;;;;;30.80;18.55;;;;;;;13.13;68.54;100673.56;4965443;28;20046;-43
2023/04/23 03:15:59;;;;;;;29.38;17.90;;;;;;;13.12;68.51;100671.81;4962119;28;20039;-43
2023/04/23 03:18:24;;;;;;;26.92;17.58;;;;;;;13.10;68.50;100670.91;4965077;28;20512;-44
2023/04/23 03:20:49;;;;;;;28.08;17.77;;;;;;;13.09;68.50;100670.91;4961050;28;20047;-44
2023/04/23 03:23:15;;;;;;;30.02;18.33;;;;;;;13.09;68.56;100660.44;4965221;28;20027;-42
2023/04/23 03:25:40;;;;;;;28.67;18.05;;;;;;;13.11;69.02;100667.44;4962718;28;20386;-43
2023/04/23 03:28:06;;;;;;;32.35;18.38;;;;;;;13.10;69.32;100667.44;4964278;28;20045;-46
2023/04/23 03:30:31;;;;;;;29.88;18.23;;;;;;;13.22;69.44;100664.84;4965259;28;20035;-43
2023/04/23 03:32:57;;;;;;;30.95;18.17;;;;;;;13.20;69.35;100669.19;4962755;28;20042;-43
2023/04/23 03:35:23;;;;;;;31.42;18.58;;;;;;;13.28;69.04;100673.56;4964483;28;20554;-44
2023/04/23 03:37:48;;;;;;;28.42;17.75;;;;;;;13.34;69.03;100664.81;4963180;28;20185;-42
2023/04/23 03:40:14;;;;;;;31.92;18.40;;;;;;;13.34;69.09;100667.44;4969601;28;20113;-41
2023/04/23 03:42:40;;;;;;;27.15;17.58;;;;;;;13.40;69.09;100667.44;4964486;28;20070;-42
2023/04/23 03:45:06;;;;;;;27.80;17.77;;;;;;;13.43;68.92;100656.94;4967775;28;20038;-42
2023/04/23 03:47:31;;;;;;;26.67;17.13;;;;;;;13.50;68.66;100656.06;4968156;28;20130;-42
2023/04/23 03:49:56;;;;;;;28.50;17.17;;;;;;;13.56;68.60;100656.03;4964356;28;21665;-42
2023/04/23 03:52:22;;;;;;;28.15;17.20;;;;;;;13.55;68.47;100664.78;4966809;28;20444;-44
2023/04/23 03:54:47;;;;;;;27.27;17.77;;;;;;;13.59;68.37;100660.41;4964071;28;20038;-44
2023/04/23 03:57:12;;;;;;;27.65;17.77;;;;;;;13.50;68.83;100663.91;4968875;28;20315;-42
2023/04/23 03:59:38;;;;;;;29.98;18.33;;;;;;;13.51;68.60;100668.28;4963310;28;20045;-42
2023/04/23 04:02:03;;;;;;;27.80;18.10;;;;;;;13.51;69.04;100665.66;4967396;28;20035;-45
2023/04/23 04:04:30;;;;;;;28.27;18.50;;;;;;;13.51;68.83;100652.56;4966776;28;20082;-41
2023/04/23 04:06:56;;;;;;;28.02;17.67;;;;;;;13.46;69.00;100666.56;4963041;28;20062;-42
2023/04/23 04:09:22;;;;;;;29.92;18.40;;;;;;;13.47;68.85;100668.31;4967178;28;20041;-42
2023/04/23 04:11:47;;;;;;;28.88;18.25;;;;;;;13.63;68.51;100668.25;4963443;28;20122;-41
2023/04/23 04:14:13;;;;;;;28.27;17.58;;;;;;;13.50;68.82;100666.53;4964564;28;20042;-42
2023/04/23 04:16:38;;;;;;;25.80;17.67;;;;;;;13.48;69.08;100672.66;4963732;28;20474;-43
2023/04/23 04:19:04;;;;;;;27.45;18.10;;;;;;;13.66;68.40;100664.78;4966827;28;20118;-42
2023/04/23 04:21:31;;;;;;;27.23;17.77;;;;;;;13.62;68.36;100666.50;4967468;28;20037;-42
2023/04/23 04:23:56;;;;;;;27.23;17.70;;;;;;;13.65;68.32;100668.25;4963897;28;20039;-42
2023/04/23 04:26:21;;;;;;;27.33;18.00;;;;;;;13.65;68.37;100660.41;4966237;28;20467;-42
2023/04/23 04:28:47;;;;;;;28.30;18.27;;;;;;;13.62;68.30;100660.41;4963694;28;20051;-44
2023/04/23 04:31:14;;;;;;;27.83;17.92;;;;;;;13.61;68.55;100654.28;4967245;28;20084;-42
2023/04/23 04:33:40;;;;;;;26.00;17.23;;;;;;;13.70;68.63;100645.53;4963199;28;20062;-42
2023/04/23 04:36:08;;;;;;;26.25;17.13;;;;;;;13.63;68.62;100655.16;4966913;28;20041;-42
2023/04/23 04:38:36;;;;;;;25.63;17.20;;;;;;;13.72;68.34;100657.75;4965140;28;20103;-45
2023/04/23 04:41:02;;;;;;;27.70;17.42;;;;;;;13.75;68.06;100656.88;4961289;28;20031;-42
2023/04/23 04:43:27;;;;;;;27.10;17.25;;;;;;;13.69;68.33;100655.16;4967807;28;20068;-43
2023/04/23 04:45:53;;;;;;;25.83;16.73;;;;;;;13.78;68.14;100656.88;4962416;28;20039;-42
2023/04/23 04:48:18;;;;;;;26.17;17.20;;;;;;;13.68;68.22;100649.91;4966219;28;20054;-41
2023/04/23 04:50:45;;;;;;;26.65;16.55;;;;;;;13.69;68.07;100655.16;4960979;28;20046;-43
2023/04/23 04:53:10;;;;;;;24.38;16.40;;;;;;;13.64;67.98;100648.19;4966832;28;20034;-42
2023/04/23 04:55:36;;;;;;;25.63;17.30;;;;;;;13.61;67.93;100651.66;4968045;28;20034;-42
2023/04/23 04:58:01;;;;;;;25.23;16.05;;;;;;;13.60;68.19;100651.69;4964716;28;20409;-42
2023/04/23 05:00:28;;;;;;;26.55;17.00;;;;;;;13.58;68.27;100659.53;4968949;28;20401;-45
2023/04/23 05:02:56;;;;;;;25.13;16.63;;;;;;;13.61;68.61;100670.00;4965398;28;20046;-40
2023/04/23 05:05:22;;;;;;;26.75;16.42;;;;;;;13.58;68.96;100671.75;4968098;28;20042;-42
2023/04/23 05:07:48;;;;;;;25.98;16.67;;;;;;;13.63;69.00;100667.38;4963785;28;20054;-42
2023/04/23 05:10:14;;;;;;;25.77;16.63;;;;;;;13.85;68.62;100668.19;4968750;28;20027;-40
2023/04/23 05:12:40;;;;;;;22.55;15.52;;;;;;;13.92;68.17;100672.53;4964934;28;20457;-42
2023/04/23 05:15:07;;;;;;;24.58;16.27;;;;;;;13.97;67.62;100665.53;4966660;28;20038;-42
2023/04/23 05:17:32;;;;;;;24.73;16.00;;;;;;;13.99;67.13;100662.03;4966994;28;20039;-42
2023/04/23 05:19:58;;;;;;;28.40;16.33;;;;;;;13.80;67.21;100655.09;4961296;28;20393;-42
2023/04/23 05:22:23;;;;;;;24.83;16.27;;;;;;;13.89;67.05;100657.72;4965437;28;20059;-44
2023/04/23 05:24:49;;;;;;;22.65;15.82;;;;;;;13.88;67.23;100653.34;4960654;28;20066;-42
2023/04/23 05:27:14;;;;;;;22.88;15.38;;;;;;;13.98;66.91;100649.78;4965261;28;20031;-41
2023/04/23 05:29:40;;;;;;;23.48;15.93;;;;;;;14.02;67.14;100651.53;4962494;28;20066;-42
2023/04/23 05:32:05;;;;;;;23.25;15.50;;;;;;;14.10;67.41;100654.09;4967358;28;20034;-41
2023/04/23 05:34:30;;;;;;;21.60;15.02;;;;;;;14.15;67.51;100663.69;4969045;28;20126;-42
2023/04/23 05:36:56;;;;;;;23.23;15.50;;;;;;;14.31;67.06;100656.63;4965524;28;20061;-45
2023/04/23 05:39:21;;;;;;;22.55;15.32;;;;;;;14.55;65.73;100653.03;4968498;28;20118;-42
2023/04/23 05:41:46;;;;;;;24.20;15.77;;;;;;;14.70;64.67;100659.94;4965477;28;20564;-41
2023/04/23 05:44:12;;;;;;;22.92;15.20;;;;;;;14.95;64.66;100657.09;4966640;28;20031;-41
2023/04/23 05:46:37;;;;;;;24.15;15.25;;;;;;;14.91;64.24;100649.28;4963385;28;20049;-41
2023/04/23 05:49:02;;;;;;;22.75;15.48;;;;;;;14.96;63.46;100643.09;4966308;28;20038;-41
2023/04/23 05:51:28;;;;;;;23.52;15.80;;;;;;;15.00;63.36;100647.44;4966863;28;20035;-44
2023/04/23 05:53:53;;;;;;;24.15;15.05;;;;;;;14.95;63.32;100646.59;4963303;28;20059;-42
2023/04/23 05:56:18;;;;;;;21.75;14.82;;;;;;;15.02;63.04;100653.56;4964987;28;20027;-41
2023/04/23 05:58:45;;;;;;;21.40;14.82;;;;;;;15.17;63.48;100652.56;4963362;28;20046;-44
2023/04/23 06:01:11;;;;;;;24.48;14.88;;;;;;;15.33;62.97;100653.28;4966219;28;20046;-41
2023/04/23 06:03:36;;;;;;;22.67;14.73;;;;;;;15.43;62.61;100654.91;4966244;28;20505;-41
2023/04/23 06:06:02;;;;;;;21.10;14.50;;;;;;;15.62;62.09;100656.50;4961586;28;20053;-41
2023/04/23 06:08:27;;;;;;;20.98;14.60;;;;;;;15.69;61.26;100657.31;4966301;28;20557;-43
2023/04/23 06:10:54;;;;;;;18.75;13.38;;;;;;;15.75;61.52;100652.00;4963374;28;20046;-43
2023/04/23 06:13:20;;;;;;;19.30;13.30;;;;;;;15.81;60.59;100647.53;4965021;28;20102;-44
2023/04/23 06:15:45;;;;;;;19.88;13.48;;;;;;;16.84;59.33;100644.41;4962484;28;20166;-41
2023/04/23 06:18:10;;;;;;;20.80;13.88;;;;;;;17.63;54.33;100636.00;4967196;28;20031;-42
2023/04/23 06:20:36;;;;;;;23.10;14.60;;;;;;;18.74;52.40;100636.28;4967540;28;20125;-41
2023/04/23 06:23:01;;;;;;;20.45;14.25;;;;;;;19.56;48.96;100623.63;4964010;28;20397;-42
2023/04/23 06:25:28;;;;;;;22.38;13.90;;;;;;;20.09;48.23;100621.22;4966518;28;20058;-41
2023/04/23 06:27:53;;;;;;;19.58;13.85;;;;;;;20.07;48.31;100620.41;4962514;28;20034;-41
2023/04/23 06:30:18;;;;;;;18.90;13.75;;;;;;;20.67;46.70;100625.66;4965300;28;20027;-44
2023/04/23 06:32:44;;;;;;;18.75;13.45;;;;;;;20.98;44.67;100622.88;4959697;28;20062;-46
2023/04/23 06:35:10;;;;;;;19.58;13.77;;;;;;;21.25;44.22;100621.94;4966369;28;20030;-43
2023/04/23 06:37:35;;;;;;;20.45;13.68;;;;;;;21.24;44.30;100625.50;4965122;28;20026;-43
2023/04/23 06:40:00;;;;;;;18.25;13.10;;;;;;;21.85;42.00;100610.06;4959913;28;20100;-42
2023/04/23 06:42:26;;;;;;;19.88;13.00;;;;;;;21.64;43.85;100611.72;4964178;28;20045;-41
2023/04/23 06:44:51;;;;;;;18.38;12.88;;;;;;;21.50;44.22;100610.47;4960964;28;20046;-42
2023/04/23 06:47:18;;;;;;;17.38;12.88;;;;;;;21.72;42.79;100604.34;4964492;28;20035;-42
2023/04/23 06:49:43;;;;;;;19.40;12.50;;;;;;;21.99;41.86;100606.94;4961559;28;20654;-42
2023/04/23 06:52:08;;;;;;;18.08;12.27;;;;;;;22.22;42.09;100601.59;4964640;28;20074;-42
2023/04/23 06:54:34;;;;;;;16.85;12.68;;;;;;;21.33;43.89;100597.81;4964013;28;20163;-43
2023/04/23 06:57:00;;;;;;;15.85;12.27;;;;;;;21.29;43.66;100612.97;4959644;28;20093;-42
2023/04/23 06:59:25;;;;;;;17.83;12.45;;;;;;;21.11;44.43;100612.69;4963931;28;20031;-42
2023/04/23 07:01:50;;;;;;;19.35;12.40;;;;;;;21.48;44.08;100614.97;4960628;28;20535;-43
2023/04/23 07:04:16;;;;;;;17.08;12.05;;;;;;;21.27;44.00;100606.88;4963276;28;20046;-42
2023/04/23 07:06:41;;;;;;;18.33;11.70;;;;;;;21.53;44.46;100605.91;4957907;28;20035;-42
2023/04/23 07:09:07;;;;;;;17.80;11.80;;;;;;;21.67;43.73;100606.31;4963409;28;20035;-43
2023/04/23 07:11:33;;;;;;;19.90;11.45;;;;;;;21.24;44.67;100606.09;4964168;28;20058;-42
2023/04/23 07:13:59;;;;;;;17.23;11.43;;;;;;;21.18;45.36;100614.25;4963896;28;20113;-42
2023/04/23 07:16:24;;;;;;;16.90;11.40;;;;;;;21.00;45.34;100605.09;4967253;28;20090;-42
2023/04/23 07:18:50;;;;;;;16.83;11.20;;;;;;;21.40;44.54;100594.91;4963588;28;20062;-42
2023/04/23 07:21:15;;;;;;;18.00;11.27;;;;;;;20.72;45.19;100607.81;4969260;28;20035;-42
2023/04/23 07:23:40;;;;;;;17.27;11.40;;;;;;;21.28;44.71;100603.31;4964193;28;20035;-41
2023/04/23 07:26:06;;;;;;;13.95;9.88;;;;;;;21.57;43.97;100591.66;4967161;28;20497;-41
2023/04/23 07:28:31;;;;;;;16.85;10.80;;;;;;;20.88;44.64;100595.78;4966570;28;20031;-41
2023/04/23 07:30:57;;;;;;;17.52;10.13;;;;;;;21.10;45.60;100601.25;4962131;28;20055;-40
2023/04/23 07:33:23;;;;;;;16.23;10.25;;;;;;;22.09;43.68;100587.06;4966105;28;20055;-42
2023/04/23 07:35:48;;;;;;;15.73;9.75;;;;;;;22.24;43.15;100583.81;4963483;28;20043;-41
2023/04/23 07:38:13;;;;;;;15.63;9.80;;;;;;;22.19;43.44;100585.81;4967464;28;20035;-43
2023/04/23 07:40:39;;;;;;;17.10;9.25;;;;;;;22.07;42.51;100586.28;4963414;28;20069;-44
2023/04/23 07:43:04;;;;;;;15.48;8.52;;;;;;;22.43;42.15;100592.81;4966780;28;20031;-44
2023/04/23 07:45:30;;;;;;;15.30;8.35;;;;;;;22.65;42.17;100585.69;4967122;28;20037;-42
2023/04/23 07:47:55;;;;;;;13.80;8.40;;;;;;;21.16;44.42;100590.47;4963699;28;20043;-42
2023/04/23 07:50:20;;;;;;;11.23;7.93;;;;;;;20.81;45.59;100585.44;4966470;28;20497;-42
2023/04/23 07:52:46;;;;;;;14.48;8.27;;;;;;;21.67;44.81;100584.19;4963759;28;20456;-40
2023/04/23 07:55:11;;;;;;;13.85;8.40;;;;;;;21.88;44.60;100582.56;4966622;28;20516;-41
2023/04/23 07:57:36;;;;;;;13.60;7.93;;;;;;;21.67;45.06;100577.13;4966119;28;20043;-38
2023/04/23 08:00:03;;;;;;;13.70;7.80;;;;;;;22.34;43.31;100589.63;4962693;28;20041;-42
2023/04/23 08:02:28;;;;;;;13.68;7.47;;;;;;;22.17;42.65;100587.63;4964343;28;20039;-41
2023/04/23 08:04:53;;;;;;;14.13;7.47;;;;;;;21.60;43.88;100578.25;4962813;28;20038;-40
2023/04/23 08:07:19;;;;;;;14.50;8.38;;;;;;;20.62;46.36;100574.56;4966181;28;20037;-41
2023/04/23 08:09:44;;;;;;;14.35;8.27;;;;;;;20.22;47.67;100573.19;4965113;28;20043;-41
2023/04/23 08:12:10;;;;;;;16.08;8.98;;;;;;;19.63;49.20;100574.09;4970214;28;20031;-41
2023/04/23 08:14:35;;;;;;;14.60;8.25;;;;;;;19.06;51.64;100564.16;4968831;28;20116;-43
2023/04/23 08:17:00;;;;;;;14.38;8.32;;;;;;;19.24;51.35;100573.38;4966173;28;20045;-39
2023/04/23 08:19:30;;;;;;;14.75;8.00;;;;;;;19.36;51.07;100567.75;4969196;28;20035;-42
2023/04/23 08:21:55;;;;;;;15.38;7.78;;;;;;;19.56;51.12;100569.88;4964998;28;20042;-39
2023/04/23 08:24:21;;;;;;;16.83;8.18;;;;;;;19.54;51.30;100567.28;4967896;28;20030;-39
2023/04/23 08:26:47;;;;;;;20.10;7.90;;;;;;;19.50;51.16;100567.41;4964408;28;20436;-42
2023/04/23 08:29:12;;;;;;;15.68;8.25;;;;;;;18.28;53.14;100572.22;4967686;28;20030;-41
2023/04/23 08:31:37;;;;;;;16.25;8.32;;;;;;;17.86;54.96;100571.41;4963704;28;20039;-41
2023/04/23 08:34:03;;;;;;;16.30;7.90;;;;;;;18.86;53.64;100574.34;4966191;28;20038;-41
2023/04/23 08:36:28;;;;;;;14.38;7.93;;;;;;;19.19;52.06;100570.84;4966417;28;20027;-40
2023/04/23 08:38:54;;;;;;;14.52;7.80;;;;;;;19.55;51.46;100573.44;4960589;28;20057;-40
2023/04/23 08:41:22;;;;;;;14.50;7.20;;;;;;;19.62;51.16;100580.28;4964426;28;20085;-42
2023/04/23 08:44:00;;;;;;;14.65;6.95;;;;;;;19.70;50.71;100575.66;4960751;28;20402;-41
2023/04/23 08:46:30;;;;;;;13.23;6.93;;;;;;;18.96;52.25;100582.03;4964632;28;20037;-40
2023/04/23 08:48:59;;;;;;;13.05;6.90;;;;;;;19.30;51.98;100586.41;4959781;28;20062;-41
2023/04/23 08:51:27;;;;;;;15.32;7.38;;;;;;;18.79;52.96;100584.22;4965228;28;20066;-41
2023/04/23 08:53:57;;;;;;;13.43;7.43;;;;;;;18.89;52.87;100584.88;4962795;28;20062;-41
2023/04/23 08:56:23;;;;;;;15.02;8.40;;;;;;;18.61;53.71;100579.38;4965909;28;20449;-40
2023/04/23 08:58:49;;;;;;;15.55;7.47;;;;;;;18.05;55.29;100585.94;4962561;28;20163;-38
2023/04/23 09:01:16;;;;;;;17.40;7.72;;;;;;;18.38;53.94;100579.03;4966749;28;20026;-40
2023/04/23 09:03:42;;;;;;;18.38;7.35;;;;;;;18.33;54.54;100568.59;4964420;28;20043;-40
2023/04/23 09:06:08;;;;;;;11.95;6.97;;;;;;;18.48;53.47;100573.47;4964895;28;20054;-40
2023/04/23 09:08:34;;;;;;;14.57;8.05;;;;;;;18.97;52.67;100572.31;4968181;28;20062;-40
2023/04/23 09:11:00;;;;;;;16.85;8.45;;;;;;;19.46;51.93;100574.53;4962500;28;20038;-41
2023/04/23 09:13:26;;;;;;;16.00;7.53;;;;;;;19.89;51.29;100566.25;4967843;28;20446;-39
2023/04/23 09:15:51;;;;;;;14.80;7.13;;;;;;;19.68;50.28;100556.31;4961867;28;20185;-40
2023/04/23 09:18:19;;;;;;;13.40;6.72;;;;;;;19.31;50.95;100562.59;4965611;28;20042;-38
2023/04/23 09:20:44;;;;;;;15.50;7.25;;;;;;;18.94;51.70;100561.84;4963253;28;20496;-43
2023/04/23 09:23:13;;;;;;;12.90;6.30;;;;;;;19.27;50.66;100563.56;4966281;28;20560;-40
2023/04/23 09:25:39;;;;;;;13.93;6.50;;;;;;;18.46;52.68;100563.88;4961398;28;20054;-43
2023/04/23 09:28:06;;;;;;;16.27;6.45;;;;;;;18.62;51.99;100554.72;4964298;28;20039;-41
2023/04/23 09:30:38;;;;;;;14.25;7.00;;;;;;;19.17;51.10;100559.44;4965438;28;20046;-39
2023/04/23 09:33:04;;;;;;;14.55;7.18;;;;;;;18.98;52.12;100553.78;4962405;28;20055;-42
2023/04/23 09:35:34;;;;;;;13.23;6.25;;;;;;;19.20;51.39;100553.22;4963258;28;20039;-39
2023/04/23 09:38:04;;;;;;;12.38;5.32;;;;;;;19.61;50.82;100560.03;4962287;28;20042;-40
2023/04/23 09:40:29;;;;;;;10.18;4.80;;;;;;;19.52;49.46;100552.38;4964929;28;20034;-45
2023/04/23 09:42:55;;;;;;;11.75;4.80;;;;;;;19.98;49.30;100555.41;4961169;28;20120;-38
2023/04/23 09:45:21;;;;;;;12.68;4.57;;;;;;;20.26;48.66;100555.41;4964366;28;20042;-39
2023/04/23 09:47:50;;;;;;;9.07;3.97;;;;;;;20.24;48.39;100551.97;4961345;28;20066;-39
2023/04/23 09:50:16;;;;;;;10.57;3.50;;;;;;;20.57;47.04;100544.72;4964552;28;20041;-39
2023/04/23 09:52:41;;;;;;;11.05;3.35;;;;;;;19.90;47.49;100545.94;4965385;28;20034;-40
2023/04/23 09:55:07;;;;;;;9.63;3.70;;;;;;;19.78;48.19;100540.13;4961501;28;20070;-39
2023/04/23 09:57:43;;;;;;;9.13;3.90;;;;;;;19.71;48.47;100541.19;4964274;28;20486;-43
2023/04/23 10:00:18;;;;;;;10.18;3.80;;;;;;;20.19;48.16;100535.31;4961174;28;20034;-40
2023/04/23 10:02:48;;;;;;;12.02;4.40;;;;;;;20.20;48.30;100540.59;4964373;28;20035;-40
2023/04/23 10:05:18;;;;;;;11.38;4.32;;;;;;;20.46;48.45;100537.13;4969510;28;20046;-40
2023/04/23 10:07:45;;;;;;;10.45;4.00;;;;;;;19.76;49.15;100538.44;4966882;28;20034;-39
2023/04/23 10:10:12;;;;;;;11.75;4.35;;;;;;;19.96;48.44;100524.59;4966505;28;20031;-38
2023/04/23 10:12:37;;;;;;;12.63;4.40;;;;;;;20.08;47.96;100535.66;4962586;28;20600;-40
2023/04/23 10:15:04;;;;;;;11.23;3.70;;;;;;;20.31;47.29;100534.94;4960526;28;20104;-40
2023/04/23 10:17:30;;;;;;;9.70;3.20;;;;;;;20.69;46.89;100531.06;4963378;28;20082;-40
2023/04/23 10:19:57;;;;;;;8.30;3.70;;;;;;;20.92;45.67;100528.50;4960240;28;20130;-38
2023/04/23 10:22:26;;;;;;;9.98;3.60;;;;;;;20.76;45.08;100522.00;4963311;28;20316;-38
2023/04/23 10:24:54;;;;;;;13.27;3.67;;;;;;;20.54;45.98;100521.88;4961207;28;20031;-40
2023/04/23 10:27:21;;;;;;;11.45;4.00;;;;;;;20.13;46.83;100520.50;4964619;28;20450;-41
2023/04/23 10:29:47;;;;;;;10.15;4.07;;;;;;;20.64;46.16;100518.00;4961461;28;20046;-38
2023/04/23 10:32:14;;;;;;;13.77;4.35;;;;;;;20.90;45.79;100510.94;4965223;28;20030;-38
2023/04/23 10:34:40;;;;;;;11.02;4.00;;;;;;;20.94;44.97;100502.81;4965189;28;20068;-39
2023/04/23 10:37:07;;;;;;;10.75;4.20;;;;;;;21.08;44.59;100496.19;4960529;28;20041;-39
2023/04/23 10:39:34;;;;;;;11.90;4.55;;;;;;;20.88;45.93;100497.75;4964114;28;20126;-40
2023/04/23 10:42:00;;;;;;;10.70;4.35;;;;;;;20.97;46.40;100510.69;4960090;28;20153;-40
2023/04/23 10:44:37;;;;;;;10.40;3.97;;;;;;;21.36;44.53;100491.63;4966209;28;20039;-39
2023/04/23 10:47:03;;;;;;;11.63;4.20;;;;;;;21.48;43.81;100488.53;4960958;28;20101;-41
2023/04/23 10:49:33;;;;;;;9.63;4.10;;;;;;;21.59;44.21;100483.66;4962683;28;20031;-39
2023/04/23 10:52:07;;;;;;;9.35;4.20;;;;;;;21.68;42.92;100472.72;4960020;28;20579;-38
2023/04/23 10:54:34;;;;;;;8.18;3.40;;;;;;;21.94;42.39;100478.81;4965032;28;20070;-40
2023/04/23 10:57:05;;;;;;;8.57;3.75;;;;;;;22.14;41.77;100476.25;4961149;28;20146;-41
2023/04/23 10:59:33;;;;;;;6.93;3.53;;;;;;;21.48;42.90;100463.78;4964621;28;20034;-38
2023/04/23 11:02:05;;;;;;;7.85;3.47;;;;;;;21.91;42.60;100465.63;4961850;28;20182;-40
2023/04/23 11:04:32;;;;;;;13.30;3.80;;;;;;;21.03;42.99;100464.53;4964666;28;20035;-41
2023/04/23 11:07:09;;;;;;;8.27;3.00;;;;;;;21.01;43.39;100467.25;4962234;28;20042;-42